aviador You're here:

CYGV Decoded Metar

HAVRE ST PIERRE in QC, CANADA
Report Time2017-12-11 22:00:00
UTC Time2017-12-11 22:56:30
Flight Rules vfr VFR
Wind330° at 04 kt
W.Decomp.*RWY 26: 4.0 kt RCW
W.Rank330° ranks 27
Current wind is below 330° avg. (6.6)
Visibility9999 m
Phenomena:N/A
Clouds:Few 250 Hf
Expected CloudBase > 1,200 ft AGL from Temp-Dew spread
CeilingNone
Temp-17°C (ISA -32)
Dew Point-20°C (78% RH)
AAT-22.0°C
QNH1015 hPa
Density Alt-3,986 ft
Elevation108 ft
Report Wrong Elevation
Raw Report
CYGV 112200Z AUTO 33004KT 9SM FEW250 M17/M20 A2996 RMK SLP152=

Extra information for CYGV:More info

Metar Taf Metar & Taf Last 4 Metars F.Rules Stats Wind Profile Meteogram Temp Stats Airport Information Weather charts Add Link Nearby VenuesMetar ALERT Operation Metar Decoded Social comments